Terminal Aerodrome Forecast
Issued by NWS

Home | Current Version | Previous Version | Text Only | Print | Product List | Glossary On
Versions: 1 2 3 4 5 6 7 8 9 10 11 12
489
FTUS46 KSTO 041733
TAFSMF
TAF
KSMF 041733Z 0418/0518 VRB04KT P6SM SCT250
      TEMPO 0418/0419 4SM BR
     FM051000 VRB03KT 4SM BR FEW200
     FM051500 33006KT P6SM SCT200=

USA.gov is the U.S. government's official web portal to all federal, state and local government web resources and services.